Airfield :
LOGIN :

Register | Disclaimer

   EN    FR    IT 

 










Legend :    VFR   Marginal VFR   IFR   Intensive IFR   Very Intensive IFR
Visi :
Ceiling :
>= 8 km
>= 3000ft
5 to 8 km
1000 to 3000 ft
1500m to 5 km
500 to 1000 ft
800 to 1500m
200 to 500 ft
< 800m
< 200 ft
Symbols :   Thunderstorms  Fog  Heavy snow  Heavy precipitations  Wind > 20 kt
SIGMETs :     Misc.  Thunderstorms  Icing  Turbulence  Mountain Waves  Volcanic Ashes






- Airport Elevation : 184 ft
- IATA code : BRU


EBBR - Bruxelles

CURRENT METAR :
  • 062150Z 25003KT CAVOK 18/12 Q1023 NOSIG

EXPIRED METARs :
  • 062120Z 28005KT 9999 FEW048 19/13 Q1023 NOSIG
  • 062050Z 30005KT 9999 FEW048 19/12 Q1024 NOSIG
  • 062020Z 31005KT CAVOK 19/12 Q1024 NOSIG
  • 061950Z 31004KT 9999 BKN049 19/11 Q1024 NOSIG
  • 061920Z 30007KT CAVOK 19/10 Q1024 NOSIG

TAF TAF EBBR
Valid from the 06 at 18:00 until the 08 at 00:00 UTC


061720Z 0618/0724 29007KT 9999 SCT048
PROB30
TEMPO 0705/0709 BKN013
BECMG 0707/0709 33015G25KT
BECMG 0716/0718 33007KT



MET'MAP, your aeronautical weather chart ! - Copyright ORBIFLY December 2007 - Disclaimer

ORBIFLY MET'MAP TEAM :

Programming & Development : Alexandra Zaïnal
Original concept : Baudouin d'Aumeries
Technical & hardware support : Manuel Goepfert
Assistance : Marc-Olivier Méhu




SOURCES & CREDITS :

   NOAA